sensor_id;sensor_type;location;lat;lon;timestamp;P1;durP1;ratioP1;P2;durP2;ratioP2
72676;SDS011;60755;51.374;10.662;2023-01-15T00:00:51;1.47;;;1.47;;
72676;SDS011;60755;51.374;10.662;2023-01-15T00:03:19;1.30;;;1.30;;
72676;SDS011;60755;51.374;10.662;2023-01-15T00:05:46;1.23;;;1.23;;
72676;SDS011;60755;51.374;10.662;2023-01-15T00:08:13;1.40;;;1.40;;
72676;SDS011;60755;51.374;10.662;2023-01-15T00:10:40;1.30;;;1.30;;
72676;SDS011;60755;51.374;10.662;2023-01-15T00:13:07;1.30;;;1.30;;
72676;SDS011;60755;51.374;10.662;2023-01-15T00:15:34;1.13;;;1.13;;
72676;SDS011;60755;51.374;10.662;2023-01-15T00:18:01;1.17;;;1.07;;
72676;SDS011;60755;51.374;10.662;2023-01-15T00:20:30;1.30;;;1.30;;
72676;SDS011;60755;51.374;10.662;2023-01-15T00:22:57;1.20;;;1.20;;
72676;SDS011;60755;51.374;10.662;2023-01-15T00:25:24;1.20;;;1.20;;
72676;SDS011;60755;51.374;10.662;2023-01-15T00:28:11;1.70;;;1.60;;
72676;SDS011;60755;51.374;10.662;2023-01-15T00:30:39;1.30;;;1.30;;
72676;SDS011;60755;51.374;10.662;2023-01-15T00:33:06;1.40;;;1.40;;
72676;SDS011;60755;51.374;10.662;2023-01-15T00:35:35;1.40;;;1.30;;
72676;SDS011;60755;51.374;10.662;2023-01-15T00:38:02;1.40;;;1.40;;
72676;SDS011;60755;51.374;10.662;2023-01-15T00:40:30;1.47;;;1.47;;
72676;SDS011;60755;51.374;10.662;2023-01-15T00:42:57;1.30;;;1.30;;
72676;SDS011;60755;51.374;10.662;2023-01-15T00:45:24;1.23;;;1.23;;
72676;SDS011;60755;51.374;10.662;2023-01-15T00:47:51;1.37;;;1.27;;
72676;SDS011;60755;51.374;10.662;2023-01-15T00:50:19;1.27;;;1.27;;
72676;SDS011;60755;51.374;10.662;2023-01-15T00:52:47;1.20;;;1.20;;
72676;SDS011;60755;51.374;10.662;2023-01-15T00:55:14;1.20;;;1.20;;
72676;SDS011;60755;51.374;10.662;2023-01-15T00:57:41;1.27;;;1.27;;
72676;SDS011;60755;51.374;10.662;2023-01-15T01:00:09;1.30;;;1.30;;
72676;SDS011;60755;51.374;10.662;2023-01-15T01:02:37;2.47;;;2.37;;
72676;SDS011;60755;51.374;10.662;2023-01-15T01:05:06;2.27;;;1.47;;
72676;SDS011;60755;51.374;10.662;2023-01-15T01:07:34;1.40;;;1.40;;
72676;SDS011;60755;51.374;10.662;2023-01-15T01:10:03;1.50;;;1.37;;
72676;SDS011;60755;51.374;10.662;2023-01-15T01:12:31;1.40;;;1.40;;
72676;SDS011;60755;51.374;10.662;2023-01-15T01:14:58;1.27;;;1.27;;
72676;SDS011;60755;51.374;10.662;2023-01-15T01:17:25;1.30;;;1.30;;
72676;SDS011;60755;51.374;10.662;2023-01-15T01:19:52;1.20;;;1.20;;
72676;SDS011;60755;51.374;10.662;2023-01-15T01:22:19;1.57;;;1.13;;
72676;SDS011;60755;51.374;10.662;2023-01-15T01:24:46;1.17;;;1.17;;
72676;SDS011;60755;51.374;10.662;2023-01-15T01:27:14;1.10;;;1.10;;
72676;SDS011;60755;51.374;10.662;2023-01-15T01:29:43;1.00;;;1.00;;
72676;SDS011;60755;51.374;10.662;2023-01-15T01:32:10;1.20;;;1.10;;
72676;SDS011;60755;51.374;10.662;2023-01-15T01:34:38;0.90;;;0.90;;
72676;SDS011;60755;51.374;10.662;2023-01-15T01:37:05;0.90;;;0.90;;
72676;SDS011;60755;51.374;10.662;2023-01-15T01:39:32;0.90;;;0.90;;
72676;SDS011;60755;51.374;10.662;2023-01-15T01:41:59;0.90;;;0.90;;
72676;SDS011;60755;51.374;10.662;2023-01-15T01:47:37;1.60;;;0.90;;
72676;SDS011;60755;51.374;10.662;2023-01-15T01:50:06;0.80;;;0.80;;
72676;SDS011;60755;51.374;10.662;2023-01-15T01:52:36;0.80;;;0.80;;
72676;SDS011;60755;51.374;10.662;2023-01-15T01:55:08;0.80;;;0.80;;
72676;SDS011;60755;51.374;10.662;2023-01-15T01:57:37;0.80;;;0.80;;
72676;SDS011;60755;51.374;10.662;2023-01-15T02:00:06;0.70;;;0.70;;
72676;SDS011;60755;51.374;10.662;2023-01-15T02:02:41;0.60;;;0.60;;
72676;SDS011;60755;51.374;10.662;2023-01-15T02:05:12;0.60;;;0.60;;
72676;SDS011;60755;51.374;10.662;2023-01-15T02:07:43;0.60;;;0.60;;
72676;SDS011;60755;51.374;10.662;2023-01-15T02:10:13;0.60;;;0.60;;
72676;SDS011;60755;51.374;10.662;2023-01-15T02:12:41;0.60;;;0.60;;
72676;SDS011;60755;51.374;10.662;2023-01-15T02:15:17;1.23;;;0.73;;
72676;SDS011;60755;51.374;10.662;2023-01-15T02:17:52;0.60;;;0.60;;
72676;SDS011;60755;51.374;10.662;2023-01-15T02:20:23;0.67;;;0.60;;
72676;SDS011;60755;51.374;10.662;2023-01-15T02:23:00;0.50;;;0.50;;
72676;SDS011;60755;51.374;10.662;2023-01-15T02:25:40;0.60;;;0.60;;
72676;SDS011;60755;51.374;10.662;2023-01-15T02:28:22;0.70;;;0.70;;
72676;SDS011;60755;51.374;10.662;2023-01-15T02:30:52;0.60;;;0.60;;
72676;SDS011;60755;51.374;10.662;2023-01-15T02:33:27;0.80;;;0.80;;
72676;SDS011;60755;51.374;10.662;2023-01-15T02:36:02;0.70;;;0.70;;
72676;SDS011;60755;51.374;10.662;2023-01-15T02:38:35;0.60;;;0.60;;
72676;SDS011;60755;51.374;10.662;2023-01-15T02:41:07;1.80;;;0.60;;
72676;SDS011;60755;51.374;10.662;2023-01-15T02:43:43;0.63;;;0.63;;
72676;SDS011;60755;51.374;10.662;2023-01-15T02:46:15;0.70;;;0.70;;
72676;SDS011;60755;51.374;10.662;2023-01-15T02:48:45;0.60;;;0.60;;
72676;SDS011;60755;51.374;10.662;2023-01-15T02:51:17;0.60;;;0.60;;
72676;SDS011;60755;51.374;10.662;2023-01-15T02:53:47;0.60;;;0.60;;
72676;SDS011;60755;51.374;10.662;2023-01-15T02:56:19;0.57;;;0.57;;
72676;SDS011;60755;51.374;10.662;2023-01-15T02:58:53;0.60;;;0.60;;
72676;SDS011;60755;51.374;10.662;2023-01-15T03:01:26;0.77;;;0.77;;
72676;SDS011;60755;51.374;10.662;2023-01-15T03:03:58;0.73;;;0.73;;
72676;SDS011;60755;51.374;10.662;2023-01-15T03:06:31;0.60;;;0.60;;
72676;SDS011;60755;51.374;10.662;2023-01-15T03:09:03;1.60;;;0.70;;
72676;SDS011;60755;51.374;10.662;2023-01-15T03:11:32;0.70;;;0.70;;
72676;SDS011;60755;51.374;10.662;2023-01-15T03:14:05;0.73;;;0.73;;
72676;SDS011;60755;51.374;10.662;2023-01-15T03:16:35;1.00;;;1.00;;
72676;SDS011;60755;51.374;10.662;2023-01-15T03:19:05;1.10;;;1.10;;
72676;SDS011;60755;51.374;10.662;2023-01-15T03:21:42;1.50;;;0.90;;
72676;SDS011;60755;51.374;10.662;2023-01-15T03:24:16;0.70;;;0.70;;
72676;SDS011;60755;51.374;10.662;2023-01-15T03:26:47;0.80;;;0.80;;
72676;SDS011;60755;51.374;10.662;2023-01-15T03:29:15;0.70;;;0.70;;
72676;SDS011;60755;51.374;10.662;2023-01-15T03:31:43;1.30;;;0.70;;
72676;SDS011;60755;51.374;10.662;2023-01-15T03:34:10;0.60;;;0.60;;
72676;SDS011;60755;51.374;10.662;2023-01-15T03:36:40;0.80;;;0.80;;
72676;SDS011;60755;51.374;10.662;2023-01-15T03:39:08;1.00;;;1.00;;
72676;SDS011;60755;51.374;10.662;2023-01-15T03:41:55;0.77;;;0.77;;
72676;SDS011;60755;51.374;10.662;2023-01-15T03:44:34;0.77;;;0.77;;
72676;SDS011;60755;51.374;10.662;2023-01-15T03:47:13;0.80;;;0.80;;
72676;SDS011;60755;51.374;10.662;2023-01-15T03:49:52;1.07;;;0.80;;
72676;SDS011;60755;51.374;10.662;2023-01-15T03:52:36;0.60;;;0.60;;
72676;SDS011;60755;51.374;10.662;2023-01-15T03:55:11;1.23;;;0.70;;
72676;SDS011;60755;51.374;10.662;2023-01-15T03:57:49;0.70;;;0.70;;
72676;SDS011;60755;51.374;10.662;2023-01-15T04:00:24;0.70;;;0.70;;
72676;SDS011;60755;51.374;10.662;2023-01-15T04:02:57;0.70;;;0.70;;
72676;SDS011;60755;51.374;10.662;2023-01-15T04:05:30;0.60;;;0.60;;
72676;SDS011;60755;51.374;10.662;2023-01-15T04:07:59;0.70;;;0.70;;
72676;SDS011;60755;51.374;10.662;2023-01-15T04:10:29;0.70;;;0.70;;
72676;SDS011;60755;51.374;10.662;2023-01-15T04:12:57;0.70;;;0.70;;
72676;SDS011;60755;51.374;10.662;2023-01-15T04:15:25;0.80;;;0.80;;
72676;SDS011;60755;51.374;10.662;2023-01-15T04:17:52;0.73;;;0.73;;
72676;SDS011;60755;51.374;10.662;2023-01-15T04:20:21;0.80;;;0.80;;
72676;SDS011;60755;51.374;10.662;2023-01-15T04:22:48;0.90;;;0.90;;
72676;SDS011;60755;51.374;10.662;2023-01-15T04:25:15;1.57;;;1.47;;
72676;SDS011;60755;51.374;10.662;2023-01-15T04:27:42;1.20;;;1.20;;
72676;SDS011;60755;51.374;10.662;2023-01-15T04:30:09;0.80;;;0.80;;
72676;SDS011;60755;51.374;10.662;2023-01-15T04:32:38;1.23;;;1.00;;
72676;SDS011;60755;51.374;10.662;2023-01-15T04:35:05;1.27;;;1.00;;
72676;SDS011;60755;51.374;10.662;2023-01-15T04:37:33;0.80;;;0.80;;
72676;SDS011;60755;51.374;10.662;2023-01-15T04:39:59;0.70;;;0.70;;
72676;SDS011;60755;51.374;10.662;2023-01-15T04:42:26;0.73;;;0.73;;
72676;SDS011;60755;51.374;10.662;2023-01-15T04:45:11;1.00;;;1.00;;
72676;SDS011;60755;51.374;10.662;2023-01-15T04:47:39;1.00;;;1.00;;
72676;SDS011;60755;51.374;10.662;2023-01-15T04:50:06;1.10;;;1.10;;
72676;SDS011;60755;51.374;10.662;2023-01-15T04:52:35;1.00;;;1.00;;
72676;SDS011;60755;51.374;10.662;2023-01-15T04:55:02;0.80;;;0.80;;
72676;SDS011;60755;51.374;10.662;2023-01-15T04:57:29;0.97;;;0.80;;
72676;SDS011;60755;51.374;10.662;2023-01-15T04:59:56;0.60;;;0.60;;
72676;SDS011;60755;51.374;10.662;2023-01-15T05:02:23;0.60;;;0.60;;
72676;SDS011;60755;51.374;10.662;2023-01-15T05:04:51;0.67;;;0.67;;
72676;SDS011;60755;51.374;10.662;2023-01-15T05:07:18;0.80;;;0.80;;
72676;SDS011;60755;51.374;10.662;2023-01-15T05:09:45;0.50;;;0.50;;
72676;SDS011;60755;51.374;10.662;2023-01-15T05:12:15;1.27;;;0.60;;
72676;SDS011;60755;51.374;10.662;2023-01-15T05:14:42;0.80;;;0.80;;
72676;SDS011;60755;51.374;10.662;2023-01-15T05:17:09;1.40;;;0.70;;
72676;SDS011;60755;51.374;10.662;2023-01-15T05:19:36;0.60;;;0.60;;
72676;SDS011;60755;51.374;10.662;2023-01-15T05:22:05;0.80;;;0.80;;
72676;SDS011;60755;51.374;10.662;2023-01-15T05:24:34;0.70;;;0.70;;
72676;SDS011;60755;51.374;10.662;2023-01-15T05:27:04;0.60;;;0.60;;
72676;SDS011;60755;51.374;10.662;2023-01-15T05:29:31;0.40;;;0.40;;
72676;SDS011;60755;51.374;10.662;2023-01-15T05:31:58;0.83;;;0.50;;
72676;SDS011;60755;51.374;10.662;2023-01-15T05:34:25;0.80;;;0.80;;
72676;SDS011;60755;51.374;10.662;2023-01-15T05:36:52;0.50;;;0.50;;
72676;SDS011;60755;51.374;10.662;2023-01-15T05:39:20;0.50;;;0.50;;
72676;SDS011;60755;51.374;10.662;2023-01-15T05:41:47;0.60;;;0.60;;
72676;SDS011;60755;51.374;10.662;2023-01-15T05:44:18;0.53;;;0.53;;
72676;SDS011;60755;51.374;10.662;2023-01-15T05:46:47;0.40;;;0.40;;
72676;SDS011;60755;51.374;10.662;2023-01-15T05:49:16;0.50;;;0.50;;
72676;SDS011;60755;51.374;10.662;2023-01-15T05:51:44;0.50;;;0.50;;
72676;SDS011;60755;51.374;10.662;2023-01-15T05:54:12;0.50;;;0.50;;
72676;SDS011;60755;51.374;10.662;2023-01-15T05:56:41;0.40;;;0.40;;
72676;SDS011;60755;51.374;10.662;2023-01-15T05:59:10;0.60;;;0.60;;
72676;SDS011;60755;51.374;10.662;2023-01-15T06:01:38;0.40;;;0.40;;
72676;SDS011;60755;51.374;10.662;2023-01-15T06:04:05;0.77;;;0.40;;
72676;SDS011;60755;51.374;10.662;2023-01-15T06:06:33;0.40;;;0.40;;
72676;SDS011;60755;51.374;10.662;2023-01-15T06:09:01;0.50;;;0.50;;
72676;SDS011;60755;51.374;10.662;2023-01-15T06:11:28;0.50;;;0.50;;
72676;SDS011;60755;51.374;10.662;2023-01-15T06:13:57;0.50;;;0.50;;
72676;SDS011;60755;51.374;10.662;2023-01-15T06:16:24;0.53;;;0.53;;
72676;SDS011;60755;51.374;10.662;2023-01-15T06:18:51;0.53;;;0.53;;
72676;SDS011;60755;51.374;10.662;2023-01-15T06:21:19;0.53;;;0.53;;
72676;SDS011;60755;51.374;10.662;2023-01-15T06:23:46;0.50;;;0.50;;
72676;SDS011;60755;51.374;10.662;2023-01-15T06:26:13;0.50;;;0.50;;
72676;SDS011;60755;51.374;10.662;2023-01-15T06:28:42;0.40;;;0.40;;
72676;SDS011;60755;51.374;10.662;2023-01-15T06:31:12;2.40;;;0.47;;
72676;SDS011;60755;51.374;10.662;2023-01-15T06:33:40;0.50;;;0.50;;
72676;SDS011;60755;51.374;10.662;2023-01-15T06:36:08;0.50;;;0.50;;
72676;SDS011;60755;51.374;10.662;2023-01-15T06:38:36;0.40;;;0.40;;
72676;SDS011;60755;51.374;10.662;2023-01-15T06:41:04;0.40;;;0.40;;
72676;SDS011;60755;51.374;10.662;2023-01-15T06:43:53;0.97;;;0.50;;
72676;SDS011;60755;51.374;10.662;2023-01-15T06:46:39;0.50;;;0.50;;
72676;SDS011;60755;51.374;10.662;2023-01-15T06:49:27;0.57;;;0.50;;
72676;SDS011;60755;51.374;10.662;2023-01-15T06:51:54;0.40;;;0.40;;
72676;SDS011;60755;51.374;10.662;2023-01-15T06:54:21;0.40;;;0.40;;
72676;SDS011;60755;51.374;10.662;2023-01-15T06:56:48;0.50;;;0.50;;
72676;SDS011;60755;51.374;10.662;2023-01-15T06:59:15;0.97;;;0.50;;
72676;SDS011;60755;51.374;10.662;2023-01-15T07:01:44;0.40;;;0.40;;
72676;SDS011;60755;51.374;10.662;2023-01-15T07:04:11;0.50;;;0.50;;
72676;SDS011;60755;51.374;10.662;2023-01-15T07:06:38;0.50;;;0.50;;
72676;SDS011;60755;51.374;10.662;2023-01-15T07:09:05;0.60;;;0.60;;
72676;SDS011;60755;51.374;10.662;2023-01-15T07:11:33;0.50;;;0.50;;
72676;SDS011;60755;51.374;10.662;2023-01-15T07:14:13;0.57;;;0.57;;
72676;SDS011;60755;51.374;10.662;2023-01-15T07:16:41;0.50;;;0.50;;
72676;SDS011;60755;51.374;10.662;2023-01-15T07:19:09;0.50;;;0.50;;
72676;SDS011;60755;51.374;10.662;2023-01-15T07:21:36;0.53;;;0.53;;
72676;SDS011;60755;51.374;10.662;2023-01-15T07:24:04;0.50;;;0.50;;
72676;SDS011;60755;51.374;10.662;2023-01-15T07:26:31;0.83;;;0.50;;
72676;SDS011;60755;51.374;10.662;2023-01-15T07:28:59;0.60;;;0.60;;
72676;SDS011;60755;51.374;10.662;2023-01-15T07:31:25;0.50;;;0.50;;
72676;SDS011;60755;51.374;10.662;2023-01-15T07:33:54;0.67;;;0.60;;
72676;SDS011;60755;51.374;10.662;2023-01-15T07:36:22;0.50;;;0.50;;
72676;SDS011;60755;51.374;10.662;2023-01-15T07:38:49;0.50;;;0.50;;
72676;SDS011;60755;51.374;10.662;2023-01-15T07:41:16;0.80;;;0.80;;
72676;SDS011;60755;51.374;10.662;2023-01-15T07:44:01;0.50;;;0.50;;
72676;SDS011;60755;51.374;10.662;2023-01-15T07:46:45;0.70;;;0.70;;
72676;SDS011;60755;51.374;10.662;2023-01-15T07:49:30;1.10;;;0.60;;
72676;SDS011;60755;51.374;10.662;2023-01-15T07:52:14;0.90;;;0.67;;
72676;SDS011;60755;51.374;10.662;2023-01-15T07:54:43;0.83;;;0.70;;
72676;SDS011;60755;51.374;10.662;2023-01-15T07:57:10;0.70;;;0.70;;
72676;SDS011;60755;51.374;10.662;2023-01-15T07:59:39;1.73;;;0.80;;
72676;SDS011;60755;51.374;10.662;2023-01-15T08:02:07;1.13;;;1.10;;
72676;SDS011;60755;51.374;10.662;2023-01-15T08:04:34;0.90;;;0.90;;
72676;SDS011;60755;51.374;10.662;2023-01-15T08:07:02;0.80;;;0.80;;
72676;SDS011;60755;51.374;10.662;2023-01-15T08:09:31;0.60;;;0.60;;
72676;SDS011;60755;51.374;10.662;2023-01-15T08:11:58;0.80;;;0.80;;
72676;SDS011;60755;51.374;10.662;2023-01-15T08:14:44;1.20;;;1.20;;
72676;SDS011;60755;51.374;10.662;2023-01-15T08:17:28;0.90;;;0.90;;
72676;SDS011;60755;51.374;10.662;2023-01-15T08:19:56;1.20;;;0.90;;
72676;SDS011;60755;51.374;10.662;2023-01-15T08:22:23;0.80;;;0.80;;
72676;SDS011;60755;51.374;10.662;2023-01-15T08:24:51;0.70;;;0.70;;
72676;SDS011;60755;51.374;10.662;2023-01-15T08:27:18;0.90;;;0.90;;
72676;SDS011;60755;51.374;10.662;2023-01-15T08:29:45;0.70;;;0.70;;
72676;SDS011;60755;51.374;10.662;2023-01-15T08:32:12;0.80;;;0.80;;
72676;SDS011;60755;51.374;10.662;2023-01-15T08:34:39;0.87;;;0.87;;
72676;SDS011;60755;51.374;10.662;2023-01-15T08:37:06;1.37;;;1.30;;
72676;SDS011;60755;51.374;10.662;2023-01-15T08:39:33;1.00;;;1.00;;
72676;SDS011;60755;51.374;10.662;2023-01-15T08:42:01;1.13;;;1.13;;
72676;SDS011;60755;51.374;10.662;2023-01-15T08:44:29;1.30;;;1.30;;
72676;SDS011;60755;51.374;10.662;2023-01-15T08:46:55;1.50;;;1.10;;
72676;SDS011;60755;51.374;10.662;2023-01-15T08:49:22;1.27;;;1.10;;
72676;SDS011;60755;51.374;10.662;2023-01-15T08:51:50;1.40;;;1.30;;
72676;SDS011;60755;51.374;10.662;2023-01-15T08:54:18;1.80;;;1.70;;
72676;SDS011;60755;51.374;10.662;2023-01-15T08:56:46;1.00;;;1.00;;
72676;SDS011;60755;51.374;10.662;2023-01-15T08:59:15;0.80;;;0.80;;
72676;SDS011;60755;51.374;10.662;2023-01-15T09:01:42;1.17;;;1.17;;
72676;SDS011;60755;51.374;10.662;2023-01-15T09:04:11;1.43;;;1.33;;
72676;SDS011;60755;51.374;10.662;2023-01-15T09:06:40;1.00;;;1.00;;
72676;SDS011;60755;51.374;10.662;2023-01-15T09:09:07;2.17;;;1.97;;
72676;SDS011;60755;51.374;10.662;2023-01-15T09:11:35;1.97;;;1.87;;
72676;SDS011;60755;51.374;10.662;2023-01-15T09:14:05;3.53;;;3.23;;
72676;SDS011;60755;51.374;10.662;2023-01-15T09:16:34;3.20;;;2.10;;
72676;SDS011;60755;51.374;10.662;2023-01-15T09:19:01;2.23;;;2.03;;
72676;SDS011;60755;51.374;10.662;2023-01-15T09:21:28;2.97;;;2.60;;
72676;SDS011;60755;51.374;10.662;2023-01-15T09:23:55;3.50;;;3.20;;
72676;SDS011;60755;51.374;10.662;2023-01-15T09:26:25;1.70;;;1.60;;
72676;SDS011;60755;51.374;10.662;2023-01-15T09:28:53;2.07;;;1.93;;
72676;SDS011;60755;51.374;10.662;2023-01-15T09:31:22;2.60;;;1.10;;
72676;SDS011;60755;51.374;10.662;2023-01-15T09:33:51;2.53;;;2.30;;
72676;SDS011;60755;51.374;10.662;2023-01-15T09:36:19;2.47;;;2.27;;
72676;SDS011;60755;51.374;10.662;2023-01-15T09:38:49;3.73;;;1.53;;
72676;SDS011;60755;51.374;10.662;2023-01-15T09:41:16;2.10;;;1.90;;
72676;SDS011;60755;51.374;10.662;2023-01-15T09:44:05;2.90;;;2.07;;
72676;SDS011;60755;51.374;10.662;2023-01-15T09:46:43;1.57;;;1.30;;
72676;SDS011;60755;51.374;10.662;2023-01-15T09:49:24;7.40;;;4.10;;
72676;SDS011;60755;51.374;10.662;2023-01-15T09:52:02;4.30;;;2.50;;
72676;SDS011;60755;51.374;10.662;2023-01-15T09:54:44;0.93;;;0.93;;
72676;SDS011;60755;51.374;10.662;2023-01-15T09:57:20;4.97;;;1.70;;
72676;SDS011;60755;51.374;10.662;2023-01-15T09:59:50;1.73;;;1.20;;
72676;SDS011;60755;51.374;10.662;2023-01-15T10:02:26;2.40;;;1.00;;
72676;SDS011;60755;51.374;10.662;2023-01-15T10:04:58;2.30;;;1.07;;
72676;SDS011;60755;51.374;10.662;2023-01-15T10:07:32;0.90;;;0.90;;
72676;SDS011;60755;51.374;10.662;2023-01-15T10:10:08;2.00;;;1.13;;
72676;SDS011;60755;51.374;10.662;2023-01-15T10:12:39;1.00;;;0.90;;
72676;SDS011;60755;51.374;10.662;2023-01-15T10:15:18;1.90;;;1.20;;
72676;SDS011;60755;51.374;10.662;2023-01-15T10:17:50;2.93;;;1.20;;
72676;SDS011;60755;51.374;10.662;2023-01-15T10:20:35;1.53;;;0.97;;
72676;SDS011;60755;51.374;10.662;2023-01-15T10:23:12;2.53;;;0.90;;
72676;SDS011;60755;51.374;10.662;2023-01-15T10:25:53;1.03;;;1.03;;
72676;SDS011;60755;51.374;10.662;2023-01-15T10:28:28;1.07;;;0.90;;
72676;SDS011;60755;51.374;10.662;2023-01-15T10:30:59;0.90;;;0.90;;
72676;SDS011;60755;51.374;10.662;2023-01-15T10:33:37;1.27;;;1.00;;
72676;SDS011;60755;51.374;10.662;2023-01-15T10:36:18;2.60;;;1.00;;
72676;SDS011;60755;51.374;10.662;2023-01-15T10:38:52;1.43;;;1.43;;
72676;SDS011;60755;51.374;10.662;2023-01-15T10:41:29;3.47;;;3.10;;
72676;SDS011;60755;51.374;10.662;2023-01-15T10:44:06;13.83;;;7.73;;
72676;SDS011;60755;51.374;10.662;2023-01-15T10:46:40;14.33;;;6.67;;
72676;SDS011;60755;51.374;10.662;2023-01-15T10:49:15;22.70;;;10.43;;
72676;SDS011;60755;51.374;10.662;2023-01-15T10:51:45;13.73;;;6.07;;
72676;SDS011;60755;51.374;10.662;2023-01-15T10:54:18;9.03;;;5.30;;
72676;SDS011;60755;51.374;10.662;2023-01-15T10:56:51;4.57;;;3.20;;
72676;SDS011;60755;51.374;10.662;2023-01-15T10:59:30;2.57;;;2.17;;
72676;SDS011;60755;51.374;10.662;2023-01-15T11:02:02;3.23;;;1.27;;
72676;SDS011;60755;51.374;10.662;2023-01-15T11:04:44;5.93;;;1.80;;
72676;SDS011;60755;51.374;10.662;2023-01-15T11:07:12;2.30;;;2.10;;
72676;SDS011;60755;51.374;10.662;2023-01-15T11:09:40;2.10;;;1.57;;
72676;SDS011;60755;51.374;10.662;2023-01-15T11:12:15;1.50;;;1.40;;
72676;SDS011;60755;51.374;10.662;2023-01-15T11:15:14;1.97;;;1.47;;
72676;SDS011;60755;51.374;10.662;2023-01-15T11:18:06;1.20;;;0.80;;
72676;SDS011;60755;51.374;10.662;2023-01-15T11:20:56;2.43;;;0.80;;
72676;SDS011;60755;51.374;10.662;2023-01-15T11:23:25;1.53;;;0.90;;
72676;SDS011;60755;51.374;10.662;2023-01-15T11:25:53;2.37;;;0.77;;
72676;SDS011;60755;51.374;10.662;2023-01-15T11:28:31;1.43;;;0.90;;
72676;SDS011;60755;51.374;10.662;2023-01-15T11:31:04;0.80;;;0.80;;
72676;SDS011;60755;51.374;10.662;2023-01-15T11:33:31;2.60;;;1.03;;
72676;SDS011;60755;51.374;10.662;2023-01-15T11:36:00;0.70;;;0.70;;
72676;SDS011;60755;51.374;10.662;2023-01-15T11:38:30;1.70;;;1.60;;
72676;SDS011;60755;51.374;10.662;2023-01-15T11:41:15;6.03;;;3.90;;
72676;SDS011;60755;51.374;10.662;2023-01-15T11:43:52;2.00;;;1.80;;
72676;SDS011;60755;51.374;10.662;2023-01-15T11:46:37;3.27;;;2.60;;
72676;SDS011;60755;51.374;10.662;2023-01-15T11:49:21;3.80;;;2.67;;
72676;SDS011;60755;51.374;10.662;2023-01-15T11:52:07;2.13;;;1.87;;
72676;SDS011;60755;51.374;10.662;2023-01-15T11:54:37;1.37;;;1.33;;
72676;SDS011;60755;51.374;10.662;2023-01-15T11:57:07;1.40;;;1.40;;
72676;SDS011;60755;51.374;10.662;2023-01-15T11:59:35;1.30;;;1.30;;
72676;SDS011;60755;51.374;10.662;2023-01-15T12:02:03;1.57;;;1.47;;
72676;SDS011;60755;51.374;10.662;2023-01-15T12:04:45;1.33;;;1.30;;
72676;SDS011;60755;51.374;10.662;2023-01-15T12:07:18;0.70;;;0.70;;
72676;SDS011;60755;51.374;10.662;2023-01-15T12:13:07;1.50;;;0.80;;
72676;SDS011;60755;51.374;10.662;2023-01-15T12:15:43;1.07;;;1.07;;
72676;SDS011;60755;51.374;10.662;2023-01-15T12:21:33;1.00;;;1.00;;
72676;SDS011;60755;51.374;10.662;2023-01-15T12:24:17;1.67;;;1.57;;
72676;SDS011;60755;51.374;10.662;2023-01-15T12:27:04;1.27;;;1.00;;
72676;SDS011;60755;51.374;10.662;2023-01-15T12:29:42;1.20;;;1.10;;
72676;SDS011;60755;51.374;10.662;2023-01-15T12:32:16;0.67;;;0.67;;
72676;SDS011;60755;51.374;10.662;2023-01-15T12:34:48;0.83;;;0.83;;
72676;SDS011;60755;51.374;10.662;2023-01-15T12:37:21;1.13;;;0.80;;
72676;SDS011;60755;51.374;10.662;2023-01-15T12:39:53;0.80;;;0.80;;
72676;SDS011;60755;51.374;10.662;2023-01-15T12:42:26;0.80;;;0.80;;
72676;SDS011;60755;51.374;10.662;2023-01-15T12:45:14;0.53;;;0.53;;
72676;SDS011;60755;51.374;10.662;2023-01-15T12:47:45;0.90;;;0.90;;
72676;SDS011;60755;51.374;10.662;2023-01-15T12:50:26;0.80;;;0.80;;
72676;SDS011;60755;51.374;10.662;2023-01-15T12:53:00;0.70;;;0.70;;
72676;SDS011;60755;51.374;10.662;2023-01-15T12:55:33;0.80;;;0.80;;
72676;SDS011;60755;51.374;10.662;2023-01-15T12:58:12;0.80;;;0.80;;
72676;SDS011;60755;51.374;10.662;2023-01-15T13:00:45;0.63;;;0.63;;
72676;SDS011;60755;51.374;10.662;2023-01-15T13:03:16;3.20;;;1.00;;
72676;SDS011;60755;51.374;10.662;2023-01-15T13:05:51;1.00;;;1.00;;
72676;SDS011;60755;51.374;10.662;2023-01-15T13:08:23;0.80;;;0.80;;
72676;SDS011;60755;51.374;10.662;2023-01-15T13:10:54;1.67;;;1.27;;
72676;SDS011;60755;51.374;10.662;2023-01-15T13:13:24;0.93;;;0.93;;
72676;SDS011;60755;51.374;10.662;2023-01-15T13:15:59;4.53;;;1.03;;
72676;SDS011;60755;51.374;10.662;2023-01-15T13:18:34;1.20;;;1.00;;
72676;SDS011;60755;51.374;10.662;2023-01-15T13:21:13;1.53;;;1.43;;
72676;SDS011;60755;51.374;10.662;2023-01-15T13:23:58;1.10;;;1.10;;
72676;SDS011;60755;51.374;10.662;2023-01-15T13:26:51;1.30;;;1.00;;
72676;SDS011;60755;51.374;10.662;2023-01-15T13:29:36;1.13;;;1.07;;
72676;SDS011;60755;51.374;10.662;2023-01-15T13:32:13;1.03;;;0.80;;
72676;SDS011;60755;51.374;10.662;2023-01-15T13:34:44;1.70;;;1.30;;
72676;SDS011;60755;51.374;10.662;2023-01-15T13:37:22;0.70;;;0.70;;
72676;SDS011;60755;51.374;10.662;2023-01-15T13:39:54;1.73;;;1.00;;
72676;SDS011;60755;51.374;10.662;2023-01-15T13:42:24;2.00;;;1.10;;
72676;SDS011;60755;51.374;10.662;2023-01-15T13:45:06;1.10;;;1.10;;
72676;SDS011;60755;51.374;10.662;2023-01-15T13:47:51;2.27;;;1.10;;
72676;SDS011;60755;51.374;10.662;2023-01-15T13:50:24;1.83;;;1.20;;
72676;SDS011;60755;51.374;10.662;2023-01-15T13:52:58;1.33;;;1.23;;
72676;SDS011;60755;51.374;10.662;2023-01-15T13:55:28;1.50;;;1.20;;
72676;SDS011;60755;51.374;10.662;2023-01-15T13:57:59;1.43;;;1.33;;
72676;SDS011;60755;51.374;10.662;2023-01-15T14:00:29;1.83;;;1.00;;
72676;SDS011;60755;51.374;10.662;2023-01-15T14:02:58;2.60;;;1.30;;
72676;SDS011;60755;51.374;10.662;2023-01-15T14:05:28;2.30;;;1.80;;
72676;SDS011;60755;51.374;10.662;2023-01-15T14:07:57;2.80;;;1.90;;
72676;SDS011;60755;51.374;10.662;2023-01-15T14:10:33;2.40;;;1.37;;
72676;SDS011;60755;51.374;10.662;2023-01-15T14:16:16;4.83;;;1.30;;
72676;SDS011;60755;51.374;10.662;2023-01-15T14:19:01;2.50;;;1.20;;
72676;SDS011;60755;51.374;10.662;2023-01-15T14:21:46;1.83;;;1.20;;
72676;SDS011;60755;51.374;10.662;2023-01-15T14:27:32;2.03;;;1.10;;
72676;SDS011;60755;51.374;10.662;2023-01-15T14:33:23;0.90;;;0.90;;
72676;SDS011;60755;51.374;10.662;2023-01-15T14:35:57;1.50;;;1.10;;
72676;SDS011;60755;51.374;10.662;2023-01-15T14:38:33;2.57;;;1.37;;
72676;SDS011;60755;51.374;10.662;2023-01-15T14:41:01;6.67;;;3.07;;
72676;SDS011;60755;51.374;10.662;2023-01-15T14:43:33;5.73;;;2.67;;
72676;SDS011;60755;51.374;10.662;2023-01-15T14:46:11;3.97;;;2.10;;
72676;SDS011;60755;51.374;10.662;2023-01-15T14:48:42;3.87;;;2.77;;
72676;SDS011;60755;51.374;10.662;2023-01-15T14:51:09;4.60;;;3.27;;
72676;SDS011;60755;51.374;10.662;2023-01-15T14:53:40;4.53;;;2.80;;
72676;SDS011;60755;51.374;10.662;2023-01-15T14:56:12;1.67;;;1.57;;
72676;SDS011;60755;51.374;10.662;2023-01-15T14:58:54;5.50;;;1.30;;
72676;SDS011;60755;51.374;10.662;2023-01-15T15:01:34;2.07;;;1.20;;
72676;SDS011;60755;51.374;10.662;2023-01-15T15:04:10;3.03;;;1.30;;
72676;SDS011;60755;51.374;10.662;2023-01-15T15:06:46;2.07;;;1.13;;
72676;SDS011;60755;51.374;10.662;2023-01-15T15:09:18;1.47;;;0.97;;
72676;SDS011;60755;51.374;10.662;2023-01-15T15:11:54;3.97;;;1.40;;
72676;SDS011;60755;51.374;10.662;2023-01-15T15:14:49;2.00;;;1.13;;
72676;SDS011;60755;51.374;10.662;2023-01-15T15:17:25;2.77;;;1.40;;
72676;SDS011;60755;51.374;10.662;2023-01-15T15:20:06;1.27;;;1.17;;